createdAt,value
2022-12-23T00:01:37.975Z,97691.66
2022-12-23T00:04:05.085Z,97693.56
2022-12-23T00:06:31.863Z,97692.59
2022-12-23T00:08:59.596Z,97687.19
2022-12-23T00:11:27.844Z,97682.25
2022-12-23T00:14:20.599Z,97685.44
2022-12-23T00:16:49.117Z,97688.16
2022-12-23T00:19:15.928Z,97681.81
2022-12-23T00:21:42.636Z,97677.88
2022-12-23T00:24:09.434Z,97680.75
2022-12-23T00:26:36.212Z,97690.75
2022-12-23T00:29:02.950Z,97684.03
2022-12-23T00:31:29.811Z,97673.13
2022-12-23T00:33:56.662Z,97688.50
2022-12-23T00:36:29.032Z,97669.03
2022-12-23T00:39:15.925Z,97675.19
2022-12-23T00:42:01.995Z,97678.53
2022-12-23T00:44:29.137Z,97675.97
2022-12-23T00:46:55.859Z,97678.13
2022-12-23T00:49:41.624Z,97688.91
2022-12-23T00:52:10.972Z,97701.69
2022-12-23T00:54:37.775Z,97691.28
2022-12-23T00:57:04.876Z,97699.25
2022-12-23T00:59:31.912Z,97710.16
2022-12-23T01:02:17.426Z,97711.94
2022-12-23T01:05:02.964Z,97711.94
2022-12-23T01:07:29.710Z,97718.97
2022-12-23T01:09:56.419Z,97723.28
2022-12-23T01:12:23.156Z,97723.13
2022-12-23T01:14:50.475Z,97719.72
2022-12-23T01:17:18.647Z,97725.41
2022-12-23T01:19:45.505Z,97727.03
2022-12-23T01:22:14.960Z,97730.75
2022-12-23T01:24:41.739Z,97736.03
2022-12-23T01:30:23.763Z,97738.25
2022-12-23T01:32:50.542Z,97749.56
2022-12-23T01:35:17.474Z,97747.81
2022-12-23T01:37:44.165Z,97741.63
2022-12-23T01:40:11.129Z,97747.03
2022-12-23T01:42:44.001Z,97756.78
2022-12-23T01:45:38.994Z,97749.41
2022-12-23T01:48:13.898Z,97755.66
2022-12-23T01:50:51.855Z,97764.91
2022-12-23T01:53:27.021Z,97767.94
2022-12-23T01:56:06.578Z,97768.75
2022-12-23T01:58:40.648Z,97768.88
2022-12-23T02:01:27.377Z,97786.28
2022-12-23T02:03:58.942Z,97793.19
2022-12-23T02:06:51.998Z,97787.09
2022-12-23T02:09:26.106Z,97802.56
2022-12-23T02:12:17.615Z,97804.78
2022-12-23T02:15:15.263Z,97821.69
2022-12-23T02:17:57.364Z,97831.72
2022-12-23T02:20:51.125Z,97822.47
2022-12-23T02:23:31.781Z,97833.97
2022-12-23T02:26:32.227Z,97839.59
2022-12-23T02:29:27.049Z,97840.91
2022-12-23T02:32:09.149Z,97842.81
2022-12-23T02:34:55.939Z,97849.03
2022-12-23T02:37:34.844Z,97847.13
2022-12-23T02:40:12.077Z,97848.84
2022-12-23T02:42:49.050Z,97840.72
2022-12-23T02:45:26.420Z,97859.72
2022-12-23T02:48:01.370Z,97864.66
2022-12-23T02:50:33.407Z,97869.28
2022-12-23T02:53:07.100Z,97868.69
2022-12-23T02:55:36.734Z,97876.38
2022-12-23T02:58:08.997Z,97884.03
2022-12-23T03:00:38.391Z,97886.28
2022-12-23T03:03:05.548Z,97895.53
2022-12-23T03:05:41.092Z,97903.69
2022-12-23T03:08:16.644Z,97899.69
2022-12-23T03:11:05.861Z,97913.25
2022-12-23T03:14:14.636Z,97915.66
2022-12-23T03:17:12.346Z,97915.00
2022-12-23T03:19:53.950Z,97913.41
2022-12-23T03:22:38.025Z,97907.03
2022-12-23T03:25:49.861Z,97907.81
2022-12-23T03:28:39.863Z,97914.53
2022-12-23T03:31:11.653Z,97921.06
2022-12-23T03:33:42.534Z,97926.16
2022-12-23T03:36:22.015Z,97922.97
2022-12-23T03:38:51.271Z,97928.22
2022-12-23T03:41:27.308Z,97938.63
2022-12-23T03:44:20.551Z,97932.88
2022-12-23T03:46:54.349Z,97943.72
2022-12-23T03:49:31.317Z,97935.25
2022-12-23T03:52:06.233Z,97940.53
2022-12-23T03:55:00.168Z,97950.75
2022-12-23T03:57:36.973Z,97948.34
2022-12-23T04:00:04.826Z,97954.59
2022-12-23T04:02:40.709Z,97950.75
2022-12-23T04:05:19.715Z,97948.81
2022-12-23T04:07:53.113Z,97959.19
2022-12-23T04:10:22.379Z,97963.69
2022-12-23T04:12:49.773Z,97955.41
2022-12-23T04:15:25.273Z,97958.28
2022-12-23T04:17:53.417Z,97952.38
2022-12-23T04:20:23.026Z,97953.50
2022-12-23T04:22:49.773Z,97944.56
2022-12-23T04:25:17.444Z,97947.13
2022-12-23T04:27:44.465Z,97944.56
2022-12-23T04:30:13.744Z,97948.72
2022-12-23T04:32:41.949Z,97959.56
2022-12-23T04:35:09.900Z,97955.28
2022-12-23T04:37:37.351Z,97954.47
2022-12-23T04:40:05.229Z,97958.28
2022-12-23T04:42:31.959Z,97961.34
2022-12-23T04:44:58.945Z,97961.81
2022-12-23T04:47:25.717Z,97976.16
2022-12-23T04:49:52.532Z,97973.16
2022-12-23T04:52:19.327Z,97968.19
2022-12-23T04:54:46.656Z,97958.13
2022-12-23T04:57:14.061Z,97954.16
2022-12-23T04:59:40.827Z,97952.56
2022-12-23T05:02:08.077Z,97946.31
2022-12-23T05:04:35.239Z,97950.50
2022-12-23T05:07:02.041Z,97955.09
2022-12-23T05:09:28.828Z,97955.91
2022-12-23T05:11:55.594Z,97960.22
2022-12-23T05:14:22.389Z,97962.28
2022-12-23T05:16:49.215Z,97953.50
2022-12-23T05:19:16.524Z,97965.31
2022-12-23T05:21:44.675Z,97962.13
2022-12-23T05:24:11.556Z,97963.38
2022-12-23T05:26:38.319Z,97963.25
2022-12-23T05:29:06.096Z,97967.06
2022-12-23T05:31:33.162Z,97960.53
2022-12-23T05:34:06.093Z,97963.72
2022-12-23T05:37:04.737Z,97961.78
2022-12-23T05:39:31.662Z,97967.84
2022-12-23T05:41:58.479Z,97968.34
2022-12-23T05:44:25.443Z,97956.69
2022-12-23T05:46:52.180Z,97962.44
2022-12-23T05:49:19.205Z,97956.22
2022-12-23T05:51:45.989Z,97959.88
2022-12-23T05:54:12.779Z,97958.94
2022-12-23T05:56:39.635Z,97960.53
2022-12-23T05:59:06.880Z,97958.16
2022-12-23T06:01:33.816Z,97959.75
2022-12-23T06:04:00.737Z,97960.22
2022-12-23T06:06:27.680Z,97966.59
2022-12-23T06:08:59.386Z,97966.13
2022-12-23T06:11:27.139Z,97972.03
2022-12-23T06:13:54.024Z,97972.84
2022-12-23T06:16:21.315Z,97975.06
2022-12-23T06:18:48.169Z,97978.91
2022-12-23T06:21:14.936Z,97992.13
2022-12-23T06:23:41.658Z,97993.25
2022-12-23T06:26:08.414Z,97991.97
2022-12-23T06:28:35.101Z,97991.19
2022-12-23T06:31:01.919Z,97991.66
2022-12-23T06:33:28.677Z,97982.72
2022-12-23T06:35:55.428Z,97987.34
2022-12-23T06:38:22.373Z,97987.69
2022-12-23T06:40:49.146Z,97991.19
2022-12-23T06:43:15.917Z,97998.19
2022-12-23T06:45:47.357Z,97993.72
2022-12-23T06:48:14.456Z,97992.94
2022-12-23T06:50:41.179Z,97996.78
2022-12-23T06:53:08.007Z,97999.47
2022-12-23T06:55:35.183Z,98000.59
2022-12-23T06:58:01.878Z,97997.41
2022-12-23T07:00:28.629Z,97999.78
2022-12-23T07:02:55.576Z,98008.75
2022-12-23T07:05:22.608Z,98014.81
2022-12-23T07:07:49.489Z,98012.72
2022-12-23T07:10:16.309Z,98021.34
2022-12-23T07:12:48.979Z,98022.94
2022-12-23T07:15:17.471Z,98024.53
2022-12-23T07:17:44.178Z,98024.53
2022-12-23T07:20:13.371Z,98022.59
2022-12-23T07:22:40.227Z,98030.28
2022-12-23T07:25:07.710Z,98029.94
2022-12-23T07:27:34.457Z,98033.78
2022-12-23T07:30:01.375Z,98026.13
2022-12-23T07:32:28.180Z,98028.03
2022-12-23T07:34:54.896Z,98022.63
2022-12-23T07:37:21.771Z,98034.25
2022-12-23T07:39:48.590Z,98036.81
2022-12-23T07:45:02.137Z,98048.78
2022-12-23T07:47:28.960Z,98041.75
2022-12-23T07:49:55.660Z,98048.78
2022-12-23T07:52:23.104Z,98055.16
2022-12-23T07:54:49.845Z,98052.44
2022-12-23T07:57:16.665Z,98063.28
2022-12-23T07:59:43.412Z,98060.75
2022-12-23T08:02:11.488Z,98055.00
2022-12-23T08:04:44.127Z,98053.06
2022-12-23T08:07:12.600Z,98049.88
2022-12-23T08:09:39.413Z,98054.53
2022-12-23T08:12:06.521Z,98045.28
2022-12-23T08:14:33.453Z,98046.38
2022-12-23T08:17:00.258Z,98049.09
2022-12-23T08:19:27.082Z,98061.22
2022-12-23T08:21:53.826Z,98058.84
2022-12-23T08:24:20.725Z,98046.53
2022-12-23T08:26:47.414Z,98051.31
2022-12-23T08:29:14.296Z,98041.41
2022-12-23T08:31:41.096Z,98037.28
2022-12-23T08:34:08.025Z,98041.59
2022-12-23T08:36:35.719Z,98036.47
2022-12-23T08:39:06.406Z,98041.13
2022-12-23T08:41:36.410Z,98029.44
2022-12-23T08:44:04.338Z,98041.59
2022-12-23T08:46:31.244Z,98028.03
2022-12-23T08:48:58.538Z,98021.78
2022-12-23T08:51:26.904Z,98037.44
2022-12-23T08:54:00.994Z,98029.63
2022-12-23T08:56:31.861Z,98042.84
2022-12-23T08:59:00.785Z,98047.03
2022-12-23T09:01:30.211Z,98038.06
2022-12-23T09:03:57.434Z,98055.94
2022-12-23T09:06:29.859Z,98056.75
2022-12-23T09:08:58.279Z,98059.94
2022-12-23T09:11:27.636Z,98054.03
2022-12-23T09:13:56.015Z,98054.19
2022-12-23T09:16:23.430Z,98056.91
2022-12-23T09:18:50.322Z,98046.53
2022-12-23T09:21:22.168Z,98037.25
2022-12-23T09:23:49.200Z,98033.91
2022-12-23T09:26:25.953Z,98017.63
2022-12-23T09:28:53.609Z,98027.69
2022-12-23T09:31:21.285Z,98016.84
2022-12-23T09:33:50.353Z,98016.03
2022-12-23T09:36:17.877Z,98011.72
2022-12-23T09:38:44.629Z,98012.53
2022-12-23T09:41:23.407Z,98014.91
2022-12-23T09:44:13.790Z,98016.03
2022-12-23T09:46:53.469Z,98012.84
2022-12-23T09:49:22.717Z,98003.09
2022-12-23T09:51:53.998Z,98002.63
2022-12-23T09:54:24.138Z,98005.66
2022-12-23T09:57:16.468Z,98005.66
2022-12-23T09:59:49.425Z,98011.88
2022-12-23T10:02:34.530Z,98019.72
2022-12-23T10:05:46.163Z,98024.34
2022-12-23T10:08:34.625Z,98021.31
2022-12-23T10:11:13.191Z,98019.06
2022-12-23T10:13:44.489Z,98016.50
2022-12-23T10:16:49.153Z,98018.09
2022-12-23T10:19:23.651Z,98014.25
2022-12-23T10:21:55.391Z,98008.81
2022-12-23T10:24:46.090Z,97997.19
2022-12-23T10:27:34.115Z,97997.97
2022-12-23T10:30:33.695Z,97995.72
2022-12-23T10:32:59.716Z,97980.56
2022-12-23T10:35:29.484Z,97977.53
2022-12-23T10:38:10.018Z,97981.38
2022-12-23T10:40:51.938Z,97966.22
2022-12-23T10:43:27.799Z,97972.13
2022-12-23T10:46:15.657Z,97975.94
2022-12-23T10:48:57.804Z,97975.63
2022-12-23T10:51:32.938Z,97971.13
2022-12-23T10:54:05.871Z,97960.91
2022-12-23T10:56:32.929Z,97964.44
2022-12-23T10:59:00.959Z,97960.13
2022-12-23T11:01:30.994Z,97956.28
2022-12-23T11:04:13.793Z,97952.47
2022-12-23T11:07:10.676Z,97955.47
2022-12-23T11:09:56.867Z,97940.63
2022-12-23T11:12:41.995Z,97939.84
2022-12-23T11:15:30.885Z,97949.75
2022-12-23T11:18:13.283Z,97945.44
2022-12-23T11:20:42.433Z,97941.44
2022-12-23T11:23:29.250Z,97933.28
2022-12-23T11:26:07.358Z,97926.75
2022-12-23T11:28:40.730Z,97922.91
2022-12-23T11:31:12.323Z,97914.75
2022-12-23T11:34:01.088Z,97909.81
2022-12-23T11:36:30.136Z,97898.63
2022-12-23T11:39:19.312Z,97897.63
2022-12-23T11:41:49.213Z,97892.69
2022-12-23T11:44:42.924Z,97889.97
2022-12-23T11:47:29.284Z,97884.22
2022-12-23T11:50:04.473Z,97878.78
2022-12-23T11:52:33.411Z,97872.53
2022-12-23T11:55:05.630Z,97858.84
2022-12-23T11:57:40.834Z,97852.94
2022-12-23T12:00:26.343Z,97844.81
2022-12-23T12:02:56.909Z,97831.34
2022-12-23T12:05:35.726Z,97824.34
2022-12-23T12:08:06.870Z,97824.34
2022-12-23T12:10:37.451Z,97821.16
2022-12-23T12:13:25.495Z,97813.16
2022-12-23T12:16:05.914Z,97818.25
2022-12-23T12:18:34.421Z,97805.47
2022-12-23T12:21:06.810Z,97807.06
2022-12-23T12:24:18.346Z,97800.53
2022-12-23T12:26:51.367Z,97790.91
2022-12-23T12:29:30.748Z,97794.09
2022-12-23T12:32:01.282Z,97792.19
2022-12-23T12:34:52.065Z,97791.72
2022-12-23T12:37:41.033Z,97789.13
2022-12-23T12:40:20.707Z,97788.81
2022-12-23T12:43:26.387Z,97787.53
2022-12-23T12:46:22.935Z,97779.38
2022-12-23T12:49:05.381Z,97775.53
2022-12-23T12:51:42.578Z,97763.25
2022-12-23T12:54:25.129Z,97763.69
2022-12-23T12:56:55.139Z,97769.13
2022-12-23T12:59:26.712Z,97763.69
2022-12-23T13:02:09.537Z,97749.47
2022-12-23T13:05:03.136Z,97756.03
2022-12-23T13:08:06.262Z,97757.25
2022-12-23T13:10:51.576Z,97761.44
2022-12-23T13:13:30.412Z,97750.69
2022-12-23T13:16:08.790Z,97753.41
2022-12-23T13:19:04.577Z,97744.81
2022-12-23T13:21:46.891Z,97735.69
2022-12-23T13:24:26.901Z,97746.66
2022-12-23T13:27:12.890Z,97742.81
2022-12-23T13:29:46.753Z,97744.28
2022-12-23T13:32:19.684Z,97745.06
2022-12-23T13:35:21.843Z,97727.84
2022-12-23T13:37:48.581Z,97717.59
2022-12-23T13:40:39.676Z,97716.56
2022-12-23T13:43:14.511Z,97712.72
2022-12-23T13:45:42.567Z,97710.47
2022-12-23T13:48:23.967Z,97712.19
2022-12-23T13:50:59.545Z,97701.19
2022-12-23T13:53:47.300Z,97712.63
2022-12-23T13:56:29.350Z,97713.28
2022-12-23T13:58:57.250Z,97715.53
2022-12-23T14:01:42.620Z,97708.97
2022-12-23T14:04:31.352Z,97711.25
2022-12-23T14:07:05.093Z,97711.34
2022-12-23T14:09:38.442Z,97712.72
2022-12-23T14:12:12.904Z,97715.38
2022-12-23T14:14:49.255Z,97710.31
2022-12-23T14:17:29.827Z,97712.16
2022-12-23T14:20:17.947Z,97705.88
2022-12-23T14:23:23.635Z,97718.00
2022-12-23T14:26:23.329Z,97711.09
2022-12-23T14:29:00.736Z,97716.09
2022-12-23T14:31:29.252Z,97705.66
2022-12-23T14:34:07.317Z,97708.72
2022-12-23T14:36:34.524Z,97704.41
2022-12-23T14:39:13.709Z,97709.50
2022-12-23T14:41:51.153Z,97707.25
2022-12-23T14:44:46.317Z,97696.84
2022-12-23T14:47:35.417Z,97710.69
2022-12-23T14:50:41.112Z,97715.31
2022-12-23T14:53:23.927Z,97714.19
2022-12-23T14:56:12.103Z,97705.81
2022-12-23T14:58:50.947Z,97726.88
2022-12-23T15:01:38.103Z,97709.34
2022-12-23T15:04:11.825Z,97705.25
2022-12-23T15:06:41.971Z,97703.44
2022-12-23T15:09:19.742Z,97702.91
2022-12-23T15:11:46.944Z,97705.72
2022-12-23T15:14:25.112Z,97716.94
2022-12-23T15:16:52.178Z,97700.03
2022-12-23T15:19:23.404Z,97703.00
2022-12-23T15:22:00.274Z,97710.03
2022-12-23T15:24:32.493Z,97721.50
2022-12-23T15:29:51.528Z,97724.31
2022-12-23T15:32:21.187Z,97740.06
2022-12-23T15:34:50.009Z,97717.94
2022-12-23T15:37:22.615Z,97722.38
2022-12-23T15:39:54.152Z,97711.94
2022-12-23T15:42:35.405Z,97719.44
2022-12-23T15:45:23.401Z,97722.25
2022-12-23T15:47:53.061Z,97716.47
2022-12-23T15:50:20.067Z,97732.59
2022-12-23T15:52:50.248Z,97714.09
2022-12-23T15:55:22.481Z,97728.84
2022-12-23T15:57:51.024Z,97730.09
2022-12-23T16:00:24.595Z,97724.75
2022-12-23T16:03:02.920Z,97731.25
2022-12-23T16:05:33.504Z,97734.88
2022-12-23T16:08:15.259Z,97720.22
2022-12-23T16:10:43.683Z,97720.22
2022-12-23T16:13:20.765Z,97732.91
2022-12-23T16:15:47.562Z,97730.19
2022-12-23T16:18:25.617Z,97722.72
2022-12-23T16:21:13.865Z,97740.47
2022-12-23T16:23:50.187Z,97745.16
2022-12-23T16:26:21.016Z,97742.53
2022-12-23T16:28:52.241Z,97734.03
2022-12-23T16:31:20.829Z,97747.97
2022-12-23T16:33:47.801Z,97740.63
2022-12-23T16:36:20.858Z,97741.06
2022-12-23T16:38:49.292Z,97732.00
2022-12-23T16:41:16.083Z,97726.22
2022-12-23T16:43:49.623Z,97721.91
2022-12-23T16:46:20.978Z,97728.59
2022-12-23T16:48:55.518Z,97729.75
2022-12-23T16:51:23.494Z,97736.09
2022-12-23T16:53:52.768Z,97734.41
2022-12-23T16:56:21.631Z,97729.50
2022-12-23T16:58:48.581Z,97741.41
2022-12-23T17:01:24.079Z,97732.22
2022-12-23T17:03:51.681Z,97737.06
2022-12-23T17:06:19.891Z,97745.44
2022-12-23T17:08:47.095Z,97743.84
2022-12-23T17:11:21.766Z,97744.22
2022-12-23T17:13:48.538Z,97743.28
2022-12-23T17:16:19.896Z,97756.44
2022-12-23T17:18:48.754Z,97761.41
2022-12-23T17:21:31.497Z,97762.53
2022-12-23T17:24:12.882Z,97765.94
2022-12-23T17:26:40.038Z,97765.78
2022-12-23T17:29:06.803Z,97762.16
2022-12-23T17:31:34.523Z,97773.03
2022-12-23T17:34:02.048Z,97766.34
2022-12-23T17:36:29.860Z,97763.75
2022-12-23T17:38:56.679Z,97758.97
2022-12-23T17:41:33.351Z,97734.41
2022-12-23T17:44:01.097Z,97795.31
2022-12-23T17:46:29.111Z,97830.31
2022-12-23T17:48:58.106Z,97825.00
2022-12-23T17:51:26.645Z,97834.97
2022-12-23T17:54:04.500Z,97823.41
2022-12-23T17:56:31.335Z,97830.44
2022-12-23T17:58:58.504Z,97808.34
2022-12-23T18:01:28.501Z,97826.72
2022-12-23T18:03:57.446Z,97829.13
2022-12-23T18:06:26.586Z,97838.66
2022-12-23T18:08:53.390Z,97856.88
2022-12-23T18:11:43.867Z,97858.13
2022-12-23T18:14:19.260Z,97856.00
2022-12-23T18:16:47.155Z,97852.81
2022-12-23T18:19:20.078Z,97849.78
2022-12-23T18:21:47.149Z,97843.41
2022-12-23T18:24:13.906Z,97852.25
2022-12-23T18:26:40.699Z,97864.25
2022-12-23T18:29:07.615Z,97865.03
2022-12-23T18:31:37.348Z,97852.56
2022-12-23T18:34:04.525Z,97865.84
2022-12-23T18:36:33.907Z,97857.22
2022-12-23T18:39:00.895Z,97862.19
2022-12-23T18:41:30.608Z,97850.41
2022-12-23T18:43:59.810Z,97854.56
2022-12-23T18:46:26.624Z,97855.69
2022-12-23T18:48:54.697Z,97843.69
2022-12-23T18:51:22.024Z,97863.84
2022-12-23T18:53:49.118Z,97857.75
2022-12-23T18:56:19.259Z,97875.78
2022-12-23T18:58:46.449Z,97873.19
2022-12-23T19:01:18.484Z,97886.25
2022-12-23T19:03:46.386Z,97883.06
2022-12-23T19:06:15.063Z,97874.00
2022-12-23T19:08:42.992Z,97868.75
2022-12-23T19:11:19.389Z,97871.69
2022-12-23T19:13:47.192Z,97883.22
2022-12-23T19:16:16.549Z,97899.97
2022-12-23T19:18:44.404Z,97899.53
2022-12-23T19:21:11.327Z,97900.19
2022-12-23T19:23:40.078Z,97897.47
2022-12-23T19:26:09.762Z,97910.56
2022-12-23T19:28:37.935Z,97907.84
2022-12-23T19:31:12.613Z,97910.09
2022-12-23T19:33:41.283Z,97904.03
2022-12-23T19:36:19.721Z,97895.38
2022-12-23T19:38:46.693Z,97912.47
2022-12-23T19:41:13.600Z,97916.94
2022-12-23T19:43:43.468Z,97932.91
2022-12-23T19:46:11.849Z,97932.25
2022-12-23T19:48:38.952Z,97926.03
2022-12-23T19:51:10.022Z,97937.38
2022-12-23T19:53:37.349Z,97937.03
2022-12-23T19:56:11.830Z,97958.78
2022-12-23T19:58:41.042Z,97953.22
2022-12-23T20:01:21.916Z,97969.84
2022-12-23T20:03:50.005Z,97977.03
2022-12-23T20:06:35.162Z,97989.81
2022-12-23T20:09:04.386Z,98004.41
2022-12-23T20:11:37.045Z,97986.97
2022-12-23T20:14:08.387Z,97971.31
2022-12-23T20:16:44.144Z,98001.53
2022-12-23T20:19:11.465Z,98000.41
2022-12-23T20:21:38.471Z,97995.94
2022-12-23T20:24:06.397Z,98019.56
2022-12-23T20:26:39.012Z,98025.34
2022-12-23T20:29:05.836Z,98028.06
2022-12-23T20:31:35.562Z,98051.41
2022-12-23T20:34:02.563Z,98048.34
2022-12-23T20:36:32.140Z,98066.25
2022-12-23T20:38:59.302Z,98059.41
2022-12-23T20:41:28.256Z,98051.38
2022-12-23T20:44:32.401Z,98052.38
2022-12-23T20:46:42.076Z,98053.66
2022-12-23T20:49:09.003Z,98046.13
2022-12-23T20:51:36.048Z,98057.66
2022-12-23T20:54:02.972Z,98054.63
2022-12-23T20:56:33.007Z,98056.69
2022-12-23T20:59:02.214Z,98066.78
2022-12-23T21:01:40.425Z,98069.81
2022-12-23T21:04:13.177Z,98072.22
2022-12-23T21:06:40.362Z,98066.44
2022-12-23T21:09:09.006Z,98059.88
2022-12-23T21:11:38.236Z,98067.88
2022-12-23T21:14:07.158Z,98064.53
2022-12-23T21:16:36.285Z,98051.75
2022-12-23T21:19:04.493Z,98043.41
2022-12-23T21:21:31.850Z,98044.88
2022-12-23T21:24:01.503Z,98048.06
2022-12-23T21:26:30.101Z,98065.50
2022-12-23T21:29:01.421Z,98061.34
2022-12-23T21:31:29.831Z,98075.72
2022-12-23T21:33:57.853Z,98070.44
2022-12-23T21:36:27.008Z,98080.19
2022-12-23T21:38:54.155Z,98084.81
2022-12-23T21:41:23.730Z,98086.75
2022-12-23T21:43:51.358Z,98088.34
2022-12-23T21:46:22.049Z,98100.00
2022-12-23T21:48:49.650Z,98105.28
2022-12-23T21:51:36.662Z,98107.53
2022-12-23T21:54:06.215Z,98122.22
2022-12-23T21:56:32.938Z,98125.75
2022-12-23T21:59:04.864Z,98133.59
2022-12-23T22:01:37.427Z,98122.56
2022-12-23T22:04:04.396Z,98119.38
2022-12-23T22:06:40.439Z,98142.34
2022-12-23T22:09:13.893Z,98136.31
2022-12-23T22:11:41.336Z,98117.75
2022-12-23T22:14:11.766Z,98126.56
2022-12-23T22:16:38.713Z,98139.03
2022-12-23T22:19:09.317Z,98135.19
2022-12-23T22:21:36.598Z,98137.09
2022-12-23T22:24:03.562Z,98136.91
2022-12-23T22:26:32.641Z,98135.16
2022-12-23T22:29:06.059Z,98149.56
2022-12-23T22:31:45.262Z,98148.28
2022-12-23T22:34:23.175Z,98150.03
2022-12-23T22:36:53.517Z,98156.59
2022-12-23T22:39:21.970Z,98150.38
2022-12-23T22:41:50.772Z,98167.47
2022-12-23T22:44:18.758Z,98143.81
2022-12-23T22:46:45.776Z,98128.63
2022-12-23T22:49:14.496Z,98137.91
2022-12-23T22:51:41.924Z,98148.59
2022-12-23T22:54:09.515Z,98147.50
2022-12-23T22:56:36.867Z,98146.69
2022-12-23T22:59:04.767Z,98143.81
2022-12-23T23:01:35.325Z,98153.41
2022-12-23T23:04:04.058Z,98140.94
2022-12-23T23:06:35.396Z,98151.34
2022-12-23T23:09:02.216Z,98136.63
2022-12-23T23:11:29.489Z,98144.94
2022-12-23T23:13:56.868Z,98137.56
2022-12-23T23:16:25.429Z,98137.75
2022-12-23T23:18:53.545Z,98136.94
2022-12-23T23:21:21.565Z,98135.81
2022-12-23T23:23:48.361Z,98152.09
2022-12-23T23:26:15.644Z,98158.53
2022-12-23T23:28:43.069Z,98159.00
2022-12-23T23:33:57.989Z,98179.00
2022-12-23T23:36:25.125Z,98186.97
2022-12-23T23:38:51.973Z,98190.31
2022-12-23T23:41:22.890Z,98186.81
2022-12-23T23:43:54.970Z,98205.03
2022-12-23T23:46:21.891Z,98202.31
2022-12-23T23:48:48.834Z,98206.97
2022-12-23T23:51:15.621Z,98223.75
2022-12-23T23:53:42.566Z,98222.63
2022-12-23T23:56:09.627Z,98226.94
2022-12-23T23:58:37.427Z,98233.31
